createdAt,value
2023-05-24T00:09:10.149Z,9.29
2023-05-24T00:19:18.474Z,9.29
2023-05-24T00:29:21.630Z,9.32
2023-05-24T00:39:25.975Z,9.22
2023-05-24T00:49:29.174Z,9.12
2023-05-24T00:59:33.594Z,9.16
2023-05-24T01:09:50.582Z,9.00
2023-05-24T01:20:00.032Z,8.58
2023-05-24T01:30:06.227Z,8.67
2023-05-24T01:40:10.460Z,8.81
2023-05-24T01:50:19.679Z,8.59
2023-05-24T02:00:23.602Z,8.79
2023-05-24T02:10:27.743Z,8.94
2023-05-24T02:20:31.310Z,9.20
2023-05-24T02:30:35.523Z,9.46
2023-05-24T02:40:38.198Z,9.33
2023-05-24T02:50:42.395Z,9.46
2023-05-24T03:00:45.616Z,9.61
2023-05-24T03:10:49.629Z,9.27
2023-05-24T03:20:52.271Z,9.34
2023-05-24T03:30:56.412Z,9.41
2023-05-24T03:40:59.169Z,9.63
2023-05-24T03:51:03.223Z,9.67
2023-05-24T04:01:06.663Z,9.84
2023-05-24T04:11:11.196Z,10.11
2023-05-24T04:21:13.995Z,10.42
2023-05-24T04:31:18.188Z,10.72
2023-05-24T04:41:22.388Z,10.79
2023-05-24T04:51:26.506Z,10.89
2023-05-24T05:01:29.352Z,11.23
2023-05-24T05:11:33.439Z,11.66
2023-05-24T05:21:36.431Z,11.90
2023-05-24T05:31:40.642Z,12.03
2023-05-24T05:41:45.950Z,12.37
2023-05-24T05:51:52.888Z,12.52
2023-05-24T06:01:55.987Z,12.82
2023-05-24T06:12:00.033Z,12.80
2023-05-24T06:22:02.714Z,13.07
2023-05-24T06:32:07.421Z,12.97
2023-05-24T06:42:10.111Z,13.15
2023-05-24T06:52:14.096Z,13.46
2023-05-24T07:02:17.204Z,13.07
2023-05-24T07:12:21.251Z,13.06
2023-05-24T07:22:25.389Z,13.36
2023-05-24T07:32:29.759Z,13.62
2023-05-24T07:42:32.728Z,14.20
2023-05-24T07:52:36.784Z,13.84
2023-05-24T08:02:39.614Z,13.43
2023-05-24T08:12:43.876Z,14.08
2023-05-24T08:22:48.339Z,15.71
2023-05-24T08:32:53.166Z,16.19
2023-05-24T08:42:57.206Z,16.36
2023-05-24T08:53:02.721Z,16.10
2023-05-24T09:03:07.261Z,16.03
2023-05-24T09:13:12.671Z,16.24
2023-05-24T09:23:16.688Z,16.33
2023-05-24T09:33:24.135Z,16.27
2023-05-24T09:43:27.234Z,16.96
2023-05-24T09:53:32.258Z,17.04
2023-05-24T10:03:37.376Z,17.43
2023-05-24T10:13:43.139Z,17.09
2023-05-24T10:23:49.743Z,17.46
2023-05-24T10:34:01.375Z,16.79
2023-05-24T10:44:13.216Z,16.04
2023-05-24T10:54:19.234Z,15.99
2023-05-24T11:04:22.307Z,16.32
2023-05-24T11:14:30.093Z,17.45
2023-05-24T11:24:33.986Z,17.88
2023-05-24T11:34:39.908Z,18.03
2023-05-24T11:44:42.655Z,17.11
2023-05-24T11:54:46.729Z,17.49
2023-05-24T12:04:49.457Z,17.66
2023-05-24T12:14:56.499Z,17.38
2023-05-24T12:24:59.349Z,18.89
2023-05-24T12:35:06.153Z,19.70
2023-05-24T12:45:10.462Z,18.68
2023-05-24T12:55:15.379Z,19.08
2023-05-24T13:05:18.764Z,18.29
2023-05-24T13:15:24.022Z,18.79
2023-05-24T13:25:27.176Z,19.74
2023-05-24T13:35:32.178Z,19.06
2023-05-24T13:45:34.866Z,18.47
2023-05-24T13:55:38.933Z,18.08
2023-05-24T14:05:41.853Z,18.00
2023-05-24T14:15:46.751Z,17.77
2023-05-24T14:25:51.808Z,17.38
2023-05-24T14:35:55.812Z,17.08
2023-05-24T14:45:58.632Z,16.63
2023-05-24T14:56:03.841Z,16.73
2023-05-24T15:06:06.664Z,16.61
2023-05-24T15:16:10.655Z,16.56
2023-05-24T15:26:13.580Z,17.17
2023-05-24T15:36:17.698Z,17.14
2023-05-24T15:46:22.076Z,16.29
2023-05-24T15:56:26.164Z,16.06
2023-05-24T16:06:28.932Z,16.18
2023-05-24T16:16:33.073Z,16.37
2023-05-24T16:26:35.906Z,16.17
2023-05-24T16:36:40.777Z,15.98
2023-05-24T16:46:43.606Z,15.76
2023-05-24T16:56:48.045Z,15.81
2023-05-24T17:06:50.733Z,16.06
2023-05-24T17:16:54.777Z,15.88
2023-05-24T17:26:57.514Z,15.83
2023-05-24T17:37:01.601Z,15.88
2023-05-24T17:47:04.568Z,15.97
2023-05-24T17:57:08.710Z,15.97
2023-05-24T18:07:11.422Z,15.73
2023-05-24T18:17:15.715Z,15.36
2023-05-24T18:27:18.753Z,15.21
2023-05-24T18:37:23.071Z,15.12
2023-05-24T18:47:25.911Z,14.93
2023-05-24T18:57:31.163Z,14.86
2023-05-24T19:07:35.416Z,14.73
2023-05-24T19:17:39.501Z,14.56
2023-05-24T19:27:57.966Z,14.26
2023-05-24T19:38:03.750Z,14.00
2023-05-24T19:48:09.499Z,13.66
2023-05-24T19:58:13.572Z,13.27
2023-05-24T20:08:16.582Z,12.86
2023-05-24T20:18:20.649Z,12.59
2023-05-24T20:28:30.927Z,12.30
2023-05-24T20:38:37.271Z,12.03
2023-05-24T20:48:41.210Z,11.94
2023-05-24T20:58:46.120Z,11.77
2023-05-24T21:08:48.837Z,11.68
2023-05-24T21:18:53.157Z,11.53
2023-05-24T21:28:55.781Z,11.47
2023-05-24T21:39:00.452Z,11.43
2023-05-24T21:49:03.150Z,11.28
2023-05-24T21:59:07.425Z,11.15
2023-05-24T22:09:10.534Z,10.98
2023-05-24T22:19:18.319Z,10.88
2023-05-24T22:29:25.356Z,10.84
2023-05-24T22:39:29.383Z,10.82
2023-05-24T22:49:33.953Z,10.80
2023-05-24T22:59:38.255Z,10.67
2023-05-24T23:09:41.496Z,10.53
2023-05-24T23:19:45.619Z,10.40
2023-05-24T23:29:48.381Z,10.34
2023-05-24T23:39:52.439Z,10.15
2023-05-24T23:49:55.279Z,9.97
2023-05-24T23:59:59.308Z,9.81
